Time;durP1;ratioP1;P1;durP2;ratioP2;P2;SDS_P1;SDS_P2;PMS_P1;PMS_P2;Temp;Humidity;BMP_temperature;BMP_pressure;BME280_temperature;BME280_humidity;BME280_pressure;Samples;Min_cycle;Max_cycle;Signal;HPM_P1;HPM_P2
2021/09/28 00:02:13;;;;;;;2.17;1.20;;;;;;;16.82;85.21;155684.00;5028681;28;20448;-79
2021/09/28 00:04:48;;;;;;;1.27;1.10;;;;;;;16.73;85.94;155660.53;5033330;28;20459;-79
2021/09/28 00:07:24;;;;;;;1.20;1.00;;;;;;;16.75;85.34;155664.47;5032688;28;20978;-79
2021/09/28 00:10:00;;;;;;;1.03;0.70;;;;;;;16.75;85.28;155665.78;5031351;28;20454;-79
2021/09/28 00:12:36;;;;;;;1.07;0.73;;;;;;;16.63;85.49;155634.53;5040832;28;20455;-79
2021/09/28 00:15:13;;;;;;;1.17;0.83;;;;;;;16.54;85.83;155609.84;5034061;28;20463;-79
2021/09/28 00:17:49;;;;;;;1.00;0.80;;;;;;;16.38;86.04;155569.47;5029845;28;20495;-79
2021/09/28 00:20:24;;;;;;;0.80;0.60;;;;;;;16.40;86.26;155575.97;5030021;28;20533;-79
2021/09/28 00:23:00;;;;;;;1.50;0.67;;;;;;;16.30;87.48;155549.97;5014938;28;20451;-79
2021/09/28 00:25:36;;;;;;;1.20;0.77;;;;;;;16.20;87.97;155522.66;5029656;28;20493;-79
2021/09/28 00:28:12;;;;;;;1.00;0.60;;;;;;;16.09;87.91;155495.38;5047556;28;20447;-79
2021/09/28 00:30:48;;;;;;;1.17;0.60;;;;;;;16.12;87.62;155501.88;5032646;28;20538;-79
2021/09/28 00:33:25;;;;;;;1.63;0.60;;;;;;;16.07;88.29;155490.13;5031772;28;20509;-79
2021/09/28 00:36:00;;;;;;;1.27;0.67;;;;;;;16.13;87.56;155504.44;5030708;28;20444;-80
2021/09/28 00:38:36;;;;;;;1.47;0.77;;;;;;;16.09;87.16;155494.06;5047905;28;20478;-79
2021/09/28 00:41:13;;;;;;;1.10;0.87;;;;;;;15.89;89.07;155442.00;5032378;28;21012;-79
2021/09/28 00:43:49;;;;;;;1.20;1.00;;;;;;;15.68;91.35;155390.03;5033914;28;20549;-79
2021/09/28 00:46:26;;;;;;;1.30;1.10;;;;;;;15.62;92.38;155374.41;5035369;28;20863;-79
2021/09/28 00:49:01;;;;;;;1.40;1.30;;;;;;;15.60;93.24;155369.22;5035572;28;20453;-79
2021/09/28 00:51:37;;;;;;;1.17;1.03;;;;;;;15.48;93.69;155336.75;5018302;28;20464;-79
2021/09/28 00:54:12;;;;;;;1.90;1.20;;;;;;;15.51;93.65;155345.88;5033154;28;20458;-79
2021/09/28 00:56:49;;;;;;;1.13;0.87;;;;;;;15.32;92.96;155296.41;5034412;28;20445;-79
2021/09/28 00:59:24;;;;;;;1.20;0.90;;;;;;;15.39;93.30;155313.28;5034571;28;20561;-80
2021/09/28 01:02:00;;;;;;;1.40;0.90;;;;;;;15.28;94.12;155286.00;5034296;28;20449;-80
2021/09/28 01:04:35;;;;;;;1.93;0.90;;;;;;;15.21;94.31;155267.81;5035968;28;20797;-80
2021/09/28 01:07:11;;;;;;;2.27;1.50;;;;;;;15.13;94.18;155247.03;5050293;28;20449;-80
2021/09/28 01:09:46;;;;;;;1.50;0.97;;;;;;;14.98;92.98;155208.06;5034036;28;20928;-80
2021/09/28 01:12:23;;;;;;;3.50;1.10;;;;;;;14.86;93.36;155176.84;5033315;28;20452;-80
2021/09/28 01:14:59;;;;;;;1.50;0.93;;;;;;;14.80;92.94;155161.31;5034524;28;20459;-80
2021/09/28 01:17:34;;;;;;;2.30;1.20;;;;;;;14.82;95.05;155167.78;5032678;28;20468;-80
2021/09/28 01:20:10;;;;;;;2.40;1.47;;;;;;;14.91;94.03;155189.84;5034104;28;20466;-80
2021/09/28 01:22:47;;;;;;;2.77;1.10;;;;;;;14.88;94.79;155183.34;5033697;28;20532;-80
2021/09/28 01:25:23;;;;;;;2.97;0.90;;;;;;;14.75;94.00;155148.25;5033611;28;20538;-80
2021/09/28 01:27:58;;;;;;;1.60;0.80;;;;;;;14.72;94.41;155141.78;5033634;28;20515;-80
2021/09/28 01:30:34;;;;;;;5.63;1.20;;;;;;;14.67;93.43;155127.53;5050350;28;20448;-79
2021/09/28 01:33:10;;;;;;;1.70;0.83;;;;;;;14.68;94.73;155131.41;5033423;28;20436;-80
2021/09/28 01:35:45;;;;;;;1.57;1.00;;;;;;;14.70;93.78;155135.28;5033277;28;20433;-79
2021/09/28 01:38:22;;;;;;;1.67;0.97;;;;;;;14.67;93.84;155128.78;5049938;28;20483;-79
2021/09/28 01:40:58;;;;;;;3.90;1.00;;;;;;;14.70;94.67;155135.28;5033803;28;20942;-79
2021/09/28 01:43:34;;;;;;;1.67;1.10;;;;;;;14.70;94.11;155135.28;5033073;28;20759;-79
2021/09/28 01:46:10;;;;;;;2.50;0.90;;;;;;;14.67;93.81;155127.53;5032968;28;20444;-79
2021/09/28 01:48:47;;;;;;;2.10;1.13;;;;;;;14.61;93.56;155113.25;5050033;28;20439;-79
2021/09/28 01:51:23;;;;;;;1.23;0.80;;;;;;;14.58;93.80;155105.44;5034430;28;20440;-79
2021/09/28 01:54:00;;;;;;;0.90;0.67;;;;;;;14.51;92.14;155087.22;5033661;28;20449;-79
2021/09/28 01:56:36;;;;;;;2.70;0.97;;;;;;;14.45;91.94;155072.97;5032963;28;20449;-79
2021/09/28 01:59:12;;;;;;;1.10;0.80;;;;;;;14.49;91.78;155082.03;5034516;28;20487;-79
2021/09/28 02:01:47;;;;;;;4.50;1.30;;;;;;;14.41;91.18;155062.56;5033763;28;20851;-79
2021/09/28 02:04:23;;;;;;;1.47;0.90;;;;;;;14.43;91.35;155067.75;5034398;28;20447;-79
2021/09/28 02:06:59;;;;;;;2.30;0.87;;;;;;;14.35;91.33;155046.97;5034311;28;20523;-79
2021/09/28 02:09:35;;;;;;;1.53;1.03;;;;;;;14.35;91.83;155046.97;5034313;28;20454;-78
2021/09/28 02:12:11;;;;;;;3.20;0.90;;;;;;;14.35;92.57;155046.97;5033756;28;20538;-79
2021/09/28 02:14:46;;;;;;;1.63;0.93;;;;;;;14.32;92.07;155039.16;5031351;28;20542;-79
2021/09/28 02:17:22;;;;;;;2.90;1.00;;;;;;;14.27;92.91;155026.13;5030659;28;20916;-79
2021/09/28 02:19:57;;;;;;;1.50;1.10;;;;;;;14.33;93.00;155041.78;5048564;28;20547;-79
2021/09/28 02:22:33;;;;;;;1.43;1.13;;;;;;;14.28;92.37;155028.75;5033340;28;20456;-79
2021/09/28 02:25:13;;;;;;;1.50;1.00;;;;;;;14.27;92.82;155026.13;5033616;28;20546;-78
2021/09/28 02:27:48;;;;;;;1.30;0.80;;;;;;;14.31;92.62;155036.59;5033628;28;20416;-79
2021/09/28 02:30:23;;;;;;;3.07;1.80;;;;;;;14.35;92.69;155046.97;5033769;28;20468;-79
2021/09/28 02:32:59;;;;;;;4.10;1.07;;;;;;;14.33;93.12;155041.78;5017135;28;20464;-79
2021/09/28 02:35:34;;;;;;;2.50;1.07;;;;;;;14.29;92.88;155031.38;5031161;28;20435;-79
2021/09/28 02:38:10;;;;;;;2.00;1.17;;;;;;;14.30;92.85;155032.63;5032704;28;20476;-79
2021/09/28 02:40:47;;;;;;;2.90;1.57;;;;;;;14.23;93.07;155015.78;5033633;28;20823;-78
2021/09/28 02:43:23;;;;;;;4.10;1.60;;;;;;;14.25;93.24;155020.94;5048020;28;20444;-79
2021/09/28 02:45:58;;;;;;;1.30;1.00;;;;;;;14.26;92.72;155023.56;5032184;28;20934;-79
2021/09/28 02:48:34;;;;;;;2.50;1.20;;;;;;;14.23;93.13;155015.78;5049026;28;20444;-78
2021/09/28 02:51:09;;;;;;;1.77;1.40;;;;;;;14.25;93.19;155020.94;5049201;28;20456;-79
2021/09/28 02:53:45;;;;;;;3.03;1.17;;;;;;;14.25;93.09;155019.66;5031986;28;20460;-79
2021/09/28 02:56:22;;;;;;;2.53;1.30;;;;;;;14.25;93.19;155019.66;5032347;28;20440;-79
2021/09/28 02:58:57;;;;;;;3.37;1.20;;;;;;;14.24;93.15;155017.09;5033460;28;20484;-78
2021/09/28 03:01:33;;;;;;;1.50;0.90;;;;;;;14.25;93.26;155020.94;5031728;28;20977;-78
2021/09/28 03:04:08;;;;;;;2.87;1.27;;;;;;;14.27;93.30;155026.13;5031754;28;20448;-79
2021/09/28 03:06:44;;;;;;;2.40;1.27;;;;;;;14.25;93.33;155019.66;5032387;28;20788;-78
2021/09/28 03:09:19;;;;;;;1.60;0.83;;;;;;;14.23;93.50;155015.78;5047992;28;20523;-79
2021/09/28 03:11:56;;;;;;;1.50;1.00;;;;;;;14.23;93.88;155015.78;5033243;28;20444;-78
2021/09/28 03:14:32;;;;;;;3.07;1.40;;;;;;;14.18;93.64;155002.78;5031812;28;20761;-79
2021/09/28 03:17:07;;;;;;;1.70;1.10;;;;;;;14.15;94.18;154995.00;5047828;28;20942;-79
2021/09/28 03:19:43;;;;;;;1.60;1.37;;;;;;;14.12;94.03;154987.19;5032337;28;20476;-79
2021/09/28 03:22:18;;;;;;;1.50;1.00;;;;;;;14.07;94.12;154974.22;5031896;28;20444;-79
2021/09/28 03:24:54;;;;;;;2.03;1.27;;;;;;;14.05;94.69;154969.03;5026498;28;20452;-79
2021/09/28 03:27:31;;;;;;;3.17;1.20;;;;;;;14.07;94.28;154974.22;5033196;28;20444;-79
2021/09/28 03:30:08;;;;;;;1.73;1.17;;;;;;;14.05;94.33;154969.03;5032877;28;20448;-79
2021/09/28 03:32:43;;;;;;;2.20;1.60;;;;;;;14.03;94.43;154965.13;5032054;28;20527;-78
2021/09/28 03:35:19;;;;;;;2.47;1.10;;;;;;;14.01;94.37;154958.63;5048015;28;20478;-78
2021/09/28 03:37:54;;;;;;;4.00;1.47;;;;;;;13.97;94.46;154948.25;5047679;28;20447;-78
2021/09/28 03:40:30;;;;;;;1.53;1.30;;;;;;;13.94;94.33;154940.47;5032085;28;20444;-79
2021/09/28 03:43:07;;;;;;;3.33;1.40;;;;;;;13.91;94.23;154933.97;5031858;28;20479;-79
2021/09/28 03:45:43;;;;;;;2.27;1.20;;;;;;;13.87;93.93;154922.31;5030984;28;20448;-79
2021/09/28 03:48:18;;;;;;;2.60;1.30;;;;;;;13.84;94.12;154914.50;5032753;28;20536;-80
2021/09/28 03:50:54;;;;;;;3.10;1.63;;;;;;;13.85;94.24;154917.06;5029578;28;20452;-80
2021/09/28 03:53:30;;;;;;;1.93;1.13;;;;;;;13.79;94.37;154901.53;5031785;28;20491;-79
2021/09/28 03:56:05;;;;;;;1.77;1.40;;;;;;;13.74;94.62;154888.56;5032303;28;20527;-80
2021/09/28 03:58:42;;;;;;;1.63;1.40;;;;;;;13.72;94.40;154883.34;5032725;28;20507;-79
2021/09/28 04:01:19;;;;;;;2.67;1.33;;;;;;;13.69;94.52;154875.53;5032476;28;20530;-79
2021/09/28 04:03:54;;;;;;;2.93;1.50;;;;;;;13.65;94.18;154865.19;5032840;28;20534;-79
2021/09/28 04:06:30;;;;;;;3.17;1.60;;;;;;;13.59;94.57;154849.59;5031254;28;20907;-79
2021/09/28 04:09:05;;;;;;;1.93;1.20;;;;;;;13.58;94.74;154847.03;5032796;28;20448;-79
2021/09/28 04:11:41;;;;;;;2.30;1.33;;;;;;;13.54;94.83;154836.63;5032278;28;20454;-79
2021/09/28 04:14:18;;;;;;;3.13;1.60;;;;;;;13.53;94.66;154834.06;5032667;28;20538;-78
2021/09/28 04:16:55;;;;;;;2.73;1.73;;;;;;;13.48;94.92;154821.03;5026992;28;20860;-79
2021/09/28 04:19:30;;;;;;;2.43;1.63;;;;;;;13.48;95.15;154821.03;5034525;28;20463;-79
2021/09/28 04:22:06;;;;;;;1.63;1.27;;;;;;;13.42;95.23;154808.06;5033552;28;20594;-79
2021/09/28 04:24:41;;;;;;;2.10;1.60;;;;;;;13.37;95.59;154795.09;5034926;28;20547;-79
2021/09/28 04:27:17;;;;;;;2.47;1.90;;;;;;;13.35;95.56;154789.91;5036176;28;20424;-79
2021/09/28 04:29:54;;;;;;;2.63;1.70;;;;;;;13.32;95.43;154782.13;5035841;28;20935;-79
2021/09/28 04:32:29;;;;;;;4.50;1.50;;;;;;;13.31;95.48;154779.56;5033973;28;20454;-79
2021/09/28 04:35:06;;;;;;;4.23;1.60;;;;;;;13.29;95.27;154774.31;5034059;28;20837;-79
2021/09/28 04:37:42;;;;;;;2.10;1.50;;;;;;;13.27;95.43;154769.13;5036373;28;20517;-79
2021/09/28 04:40:17;;;;;;;2.60;1.70;;;;;;;13.26;95.27;154766.53;5034644;28;20467;-79
2021/09/28 04:42:53;;;;;;;1.67;1.50;;;;;;;13.23;95.50;154757.47;5033762;28;20447;-79
2021/09/28 04:45:30;;;;;;;3.10;1.73;;;;;;;13.14;95.74;154735.41;5035330;28;20812;-79
2021/09/28 04:48:06;;;;;;;3.40;1.70;;;;;;;13.13;95.83;154732.78;5049034;28;21941;-79
2021/09/28 04:50:41;;;;;;;2.27;1.83;;;;;;;13.11;95.82;154727.63;5035466;28;20443;-79
2021/09/28 04:53:17;;;;;;;1.70;1.40;;;;;;;13.06;96.13;154714.59;5033537;28;21095;-80
2021/09/28 04:55:55;;;;;;;1.87;1.57;;;;;;;13.02;96.27;154704.25;5035118;28;20420;-79
2021/09/28 04:58:30;;;;;;;3.47;2.00;;;;;;;12.99;96.37;154696.47;5008085;28;20468;-79
2021/09/28 05:01:07;;;;;;;2.60;2.00;;;;;;;12.97;96.38;154689.97;5033696;28;20471;-79
2021/09/28 05:03:43;;;;;;;6.47;2.30;;;;;;;12.92;96.71;154678.25;5034767;28;20533;-80
2021/09/28 05:06:19;;;;;;;3.10;2.07;;;;;;;12.88;96.88;154667.91;5031245;28;20551;-79
2021/09/28 05:08:54;;;;;;;3.80;2.60;;;;;;;12.87;96.96;154665.28;5019251;28;20696;-79
2021/09/28 05:11:30;;;;;;;2.30;2.10;;;;;;;12.83;97.27;154654.94;5030500;28;20934;-80
2021/09/28 05:14:06;;;;;;;3.00;2.63;;;;;;;12.80;97.55;154647.16;5032307;28;20439;-79
2021/09/28 05:16:43;;;;;;;4.80;3.03;;;;;;;12.72;98.33;154626.41;5034433;28;20844;-79
2021/09/28 05:19:18;;;;;;;4.00;3.20;;;;;;;12.74;99.18;154631.56;5047883;28;20460;-79
2021/09/28 05:21:54;;;;;;;4.30;3.30;;;;;;;12.77;98.47;154640.66;5003613;28;20482;-79
2021/09/28 05:24:30;;;;;;;5.33;2.80;;;;;;;12.79;98.07;154645.84;5033360;28;20455;-80
2021/09/28 05:27:05;;;;;;;2.77;2.53;;;;;;;12.82;97.84;154652.31;5033033;28;20443;-81
2021/09/28 05:29:41;;;;;;;3.43;2.60;;;;;;;12.72;97.42;154626.41;5034246;28;20441;-80
2021/09/28 05:32:18;;;;;;;4.00;2.77;;;;;;;12.68;97.82;154616.03;5049218;28;20922;-80
2021/09/28 05:34:53;;;;;;;3.13;2.83;;;;;;;12.62;97.72;154600.47;5047922;28;20450;-80
2021/09/28 05:37:29;;;;;;;7.50;4.50;;;;;;;12.63;97.71;154603.03;5032901;28;20455;-80
2021/09/28 05:40:06;;;;;;;2.97;2.70;;;;;;;12.62;98.08;154600.47;5032592;28;20474;-80
2021/09/28 05:42:41;;;;;;;4.20;3.17;;;;;;;12.61;98.00;154597.84;5023304;28;20450;-80
2021/09/28 05:45:17;;;;;;;5.60;3.10;;;;;;;12.58;98.50;154590.06;5032014;28;20447;-80
2021/09/28 05:47:53;;;;;;;4.30;3.27;;;;;;;12.59;98.73;154594.00;5033090;28;20465;-80
2021/09/28 05:50:29;;;;;;;4.30;3.17;;;;;;;12.61;99.41;154597.84;5033068;28;20942;-80
2021/09/28 05:53:07;;;;;;;4.97;4.33;;;;;;;12.60;99.66;154596.56;5034109;28;20502;-80
2021/09/28 05:55:43;;;;;;;4.23;3.83;;;;;;;12.71;99.51;154623.78;5033195;28;20535;-80
2021/09/28 05:58:18;;;;;;;4.80;3.40;;;;;;;12.76;99.12;154636.81;5032928;28;20925;-80
2021/09/28 06:00:54;;;;;;;5.80;3.83;;;;;;;12.78;98.96;154643.28;5046534;28;20443;-80
2021/09/28 06:03:31;;;;;;;7.40;3.53;;;;;;;12.74;99.54;154632.88;5033582;28;20463;-81
2021/09/28 06:06:07;;;;;;;4.53;3.20;;;;;;;12.78;99.95;154641.97;5033656;28;20447;-81
2021/09/28 06:08:42;;;;;;;5.23;3.80;;;;;;;12.82;99.89;154652.31;5029761;28;20460;-76
2021/09/28 06:11:18;;;;;;;4.10;3.33;;;;;;;12.85;100.00;154660.13;5020129;28;20450;-75
2021/09/28 06:13:53;;;;;;;4.50;3.83;;;;;;;12.97;99.71;154691.28;5047416;28;20454;-75
2021/09/28 06:16:29;;;;;;;3.47;3.00;;;;;;;13.10;99.09;154725.06;5030298;28;21071;-76
2021/09/28 06:19:05;;;;;;;4.60;3.10;;;;;;;13.17;98.33;154743.22;5029054;28;20482;-74
2021/09/28 06:21:41;;;;;;;4.30;3.37;;;;;;;13.32;97.82;154782.13;5031826;28;20419;-75
2021/09/28 06:24:17;;;;;;;9.10;4.67;;;;;;;13.52;97.65;154831.44;5029511;28;20458;-74
2021/09/28 06:26:53;;;;;;;5.10;3.80;;;;;;;13.74;96.82;154889.81;5027036;28;20471;-75
2021/09/28 06:29:29;;;;;;;4.47;3.40;;;;;;;13.95;95.36;154943.09;5027778;28;20853;-74
2021/09/28 06:32:05;;;;;;;4.00;3.60;;;;;;;13.99;94.38;154954.75;5024638;28;20455;-74
2021/09/28 06:34:42;;;;;;;3.77;3.47;;;;;;;13.95;94.08;154943.09;5013575;28;20814;-74
2021/09/28 06:37:18;;;;;;;4.20;3.30;;;;;;;14.12;93.37;154987.19;5031083;28;20821;-75
2021/09/28 06:39:53;;;;;;;3.60;3.30;;;;;;;14.18;93.67;155001.50;5031233;28;20510;-75
2021/09/28 06:42:29;;;;;;;4.97;3.03;;;;;;;14.06;93.70;154971.59;5032428;28;20810;-75
2021/09/28 06:45:06;;;;;;;4.70;3.13;;;;;;;13.98;92.39;154952.13;5027171;28;20456;-74
2021/09/28 06:47:41;;;;;;;5.53;2.97;;;;;;;13.95;93.64;154944.34;5015904;28;20483;-75
2021/09/28 06:50:18;;;;;;;4.20;3.23;;;;;;;13.89;94.00;154927.50;5028984;28;20848;-75
2021/09/28 06:52:54;;;;;;;6.40;3.23;;;;;;;13.86;93.35;154919.69;5024744;28;20440;-75
2021/09/28 06:55:30;;;;;;;4.30;3.23;;;;;;;13.95;93.45;154943.09;5042998;28;20895;-74
2021/09/28 06:58:06;;;;;;;4.50;3.43;;;;;;;13.90;93.32;154931.38;5027234;28;20509;-74
2021/09/28 07:00:41;;;;;;;6.53;4.40;;;;;;;13.80;94.62;154904.09;5026788;28;20891;-75
2021/09/28 07:03:17;;;;;;;6.33;3.97;;;;;;;13.89;94.76;154928.81;5027771;28;20464;-77
2021/09/28 07:05:54;;;;;;;6.43;4.63;;;;;;;14.12;93.23;154987.19;5030784;28;20872;-76
2021/09/28 07:08:30;;;;;;;12.93;4.47;;;;;;;14.26;91.77;155022.25;5024879;28;21042;-76
2021/09/28 07:11:06;;;;;;;5.83;3.40;;;;;;;14.34;90.83;155044.41;5025868;28;20532;-76
2021/09/28 07:13:41;;;;;;;6.75;4.18;;;;;;;14.55;89.83;155097.63;5032882;28;20862;-76
2021/09/28 07:16:17;;;;;;;7.23;6.40;;;;;;;14.59;90.22;155109.31;5016926;28;20206;-76
2021/09/28 07:18:52;;;;;;;6.23;3.27;;;;;;;14.86;89.99;155176.84;5020832;28;20891;-76
2021/09/28 07:21:30;;;;;;;5.07;4.00;;;;;;;14.95;88.80;155201.56;5011197;28;20441;-76
2021/09/28 07:24:06;;;;;;;5.67;4.67;;;;;;;15.02;86.36;155219.75;5024447;28;20464;-76
2021/09/28 07:26:42;;;;;;;8.73;7.87;;;;;;;15.15;86.59;155252.22;5040985;28;20818;-76
2021/09/28 07:29:17;;;;;;;6.40;5.80;;;;;;;15.18;83.76;155261.31;5031147;28;20550;-76
2021/09/28 07:31:53;;;;;;;7.73;6.87;;;;;;;15.08;83.58;155234.03;5026108;28;20530;-76
2021/09/28 07:34:31;;;;;;;6.57;5.97;;;;;;;14.93;85.10;155196.34;5015072;28;20443;-76
2021/09/28 07:37:07;;;;;;;7.00;5.43;;;;;;;15.32;85.15;155296.41;5013494;28;20452;-76
2021/09/28 07:39:43;;;;;;;6.70;4.47;;;;;;;15.61;85.50;155370.53;5025904;28;20527;-75
2021/09/28 07:42:18;;;;;;;6.77;5.97;;;;;;;15.67;83.25;155387.41;5028461;28;21037;-74
2021/09/28 07:44:55;;;;;;;7.43;5.40;;;;;;;15.82;82.38;155426.44;5026377;28;20810;-75
2021/09/28 07:47:31;;;;;;;7.17;5.30;;;;;;;15.61;82.86;155371.84;5029124;28;20472;-75
2021/09/28 07:50:08;;;;;;;8.13;5.50;;;;;;;15.59;82.65;155365.34;5023407;28;20955;-76
2021/09/28 07:52:45;;;;;;;6.90;6.20;;;;;;;15.59;81.34;155365.34;5028565;28;20537;-76
2021/09/28 07:55:21;;;;;;;8.30;6.17;;;;;;;15.66;81.43;155383.53;5027111;28;20451;-75
2021/09/28 07:57:56;;;;;;;6.90;6.17;;;;;;;15.89;81.68;155442.00;5029244;28;20462;-76
2021/09/28 08:00:32;;;;;;;9.83;6.73;;;;;;;15.82;80.62;155426.44;5022482;28;20474;-76
2021/09/28 08:03:08;;;;;;;7.10;6.40;;;;;;;15.76;82.04;155409.53;5030030;28;20453;-75
2021/09/28 08:05:44;;;;;;;6.70;5.60;;;;;;;15.95;84.30;155457.63;5027626;28;20430;-76
2021/09/28 08:08:22;;;;;;;6.73;5.80;;;;;;;16.05;80.94;155483.63;5014214;28;20469;-76
2021/09/28 08:10:58;;;;;;;8.13;6.33;;;;;;;15.91;80.30;155447.25;5032970;28;20524;-76
2021/09/28 08:13:33;;;;;;;6.27;5.67;;;;;;;16.02;83.07;155475.88;5028289;28;20448;-75
2021/09/28 08:16:09;;;;;;;14.70;6.80;;;;;;;15.91;81.38;155447.25;5024453;28;21000;-76
2021/09/28 08:18:44;;;;;;;10.57;6.20;;;;;;;15.93;84.02;155452.44;5045209;28;20459;-76
2021/09/28 08:21:21;;;;;;;7.50;6.73;;;;;;;15.97;82.06;155464.13;5044716;28;20464;-76
2021/09/28 08:23:58;;;;;;;12.10;7.90;;;;;;;15.70;82.86;155395.22;5031264;28;20440;-75
2021/09/28 08:29:28;;;;;;;8.20;7.17;;;;;;;15.76;83.59;155410.84;5027904;28;20514;-75
2021/09/28 08:32:04;;;;;;;9.93;8.63;;;;;;;15.94;83.42;155455.06;5026104;28;20545;-76
2021/09/28 08:34:40;;;;;;;8.77;6.57;;;;;;;15.90;83.04;155444.63;5041352;28;20441;-75
2021/09/28 08:37:17;;;;;;;9.77;6.37;;;;;;;15.94;82.05;155455.06;5014063;28;20439;-75
2021/09/28 08:39:54;;;;;;;8.17;6.93;;;;;;;15.97;81.03;155462.81;5029260;28;20889;-76
2021/09/28 08:42:30;;;;;;;9.40;7.00;;;;;;;16.00;80.26;155471.94;5028254;28;20530;-76
2021/09/28 08:45:07;;;;;;;11.50;7.20;;;;;;;16.11;80.20;155500.56;5019512;28;21145;-75
2021/09/28 08:47:44;;;;;;;8.83;7.00;;;;;;;16.53;79.03;155608.53;5019616;28;20470;-75
2021/09/28 08:50:23;;;;;;;15.33;7.50;;;;;;;16.78;78.15;155673.59;5028969;28;20435;-75
2021/09/28 08:52:59;;;;;;;9.37;7.10;;;;;;;16.65;76.16;155639.78;5032576;28;20451;-75
2021/09/28 08:55:37;;;;;;;8.93;7.87;;;;;;;16.35;75.90;155562.97;5031920;28;20459;-76
2021/09/28 08:58:14;;;;;;;9.13;7.43;;;;;;;15.99;77.63;155468.06;5029949;28;20451;-76
2021/09/28 09:00:52;;;;;;;8.30;7.50;;;;;;;15.73;76.87;155403.03;5028686;28;20835;-75
2021/09/28 09:03:29;;;;;;;8.93;7.60;;;;;;;15.60;77.39;155369.22;5030201;28;20876;-75
2021/09/28 09:06:07;;;;;;;8.57;7.20;;;;;;;15.94;76.98;155455.06;5011355;28;20472;-76
2021/09/28 09:08:48;;;;;;;8.20;7.40;;;;;;;15.83;78.40;155429.03;5028001;28;20460;-76
2021/09/28 09:11:25;;;;;;;10.23;6.50;;;;;;;15.97;78.06;155462.81;5043494;28;20538;-76
2021/09/28 09:14:12;;;;;;;7.17;6.47;;;;;;;16.18;77.18;155518.75;5032873;28;20458;-76
2021/09/28 09:16:49;;;;;;;7.97;7.00;;;;;;;16.36;75.23;155565.56;5039116;28;20869;-75
2021/09/28 09:19:27;;;;;;;10.67;6.53;;;;;;;16.40;74.76;155574.66;5032798;28;20459;-76
2021/09/28 09:22:04;;;;;;;7.40;6.70;;;;;;;16.48;75.54;155595.47;5027854;28;20455;-76
2021/09/28 09:24:44;;;;;;;11.47;7.60;;;;;;;16.42;73.64;155581.16;5024232;28;20456;-76
2021/09/28 09:27:30;;;;;;;12.63;6.57;;;;;;;16.31;73.96;155552.56;5032845;28;20793;-76
2021/09/28 09:30:08;;;;;;;6.23;5.63;;;;;;;16.21;73.76;155525.25;5018381;28;20866;-76
2021/09/28 09:32:51;;;;;;;6.83;5.50;;;;;;;16.22;71.12;155529.16;5031685;28;20440;-76
2021/09/28 09:35:27;;;;;;;8.00;6.97;;;;;;;15.73;75.13;155403.03;5045460;28;20439;-75
2021/09/28 09:38:07;;;;;;;7.83;7.03;;;;;;;15.84;75.12;155431.63;5032315;28;20913;-81
2021/09/28 09:40:45;;;;;;;7.87;7.07;;;;;;;15.75;76.48;155408.22;5040404;28;20481;-78
2021/09/28 09:43:31;;;;;;;8.93;7.57;;;;;;;15.59;76.13;155365.34;5023782;28;20443;-79
2021/09/28 09:46:18;;;;;;;7.77;7.07;;;;;;;15.50;76.95;155341.94;5036845;28;20447;-79
2021/09/28 09:48:54;;;;;;;7.40;6.70;;;;;;;15.53;75.95;155349.75;5026300;28;20494;-79
2021/09/28 09:51:40;;;;;;;8.10;6.83;;;;;;;15.56;74.40;155357.56;5032793;28;20431;-79
2021/09/28 09:54:17;;;;;;;6.57;5.87;;;;;;;15.63;72.36;155377.03;5027066;28;20456;-80
2021/09/28 09:56:53;;;;;;;5.90;5.40;;;;;;;15.68;72.43;155390.03;5027177;28;20520;-80
2021/09/28 09:59:30;;;;;;;6.50;5.87;;;;;;;15.64;71.52;155378.34;5027000;28;20447;-79
2021/09/28 10:02:06;;;;;;;5.00;4.50;;;;;;;15.70;72.42;155395.22;5024083;28;20501;-79
2021/09/28 10:04:42;;;;;;;6.23;5.40;;;;;;;15.82;72.14;155426.44;5026745;28;20930;-80
2021/09/28 10:07:17;;;;;;;6.00;5.40;;;;;;;15.84;71.56;155431.63;5020407;28;20790;-79
2021/09/28 10:09:53;;;;;;;8.67;5.37;;;;;;;16.07;73.24;155490.13;5042718;28;20928;-80
2021/09/28 10:12:35;;;;;;;5.37;4.40;;;;;;;16.06;72.07;155486.25;5026163;28;20437;-80
2021/09/28 10:15:14;;;;;;;6.60;5.97;;;;;;;15.91;72.36;155448.56;5028312;28;20470;-80
2021/09/28 10:17:50;;;;;;;7.97;5.27;;;;;;;16.03;73.06;155479.75;5019327;28;20918;-79
2021/09/28 10:20:29;;;;;;;6.50;5.80;;;;;;;16.08;72.01;155492.75;5025857;28;20479;-80
2021/09/28 10:23:14;;;;;;;11.23;7.03;;;;;;;15.91;72.07;155447.25;5029429;28;20438;-80
2021/09/28 10:25:50;;;;;;;10.80;7.27;;;;;;;15.78;74.31;155416.03;5031359;28;20763;-79
2021/09/28 10:28:34;;;;;;;5.83;5.20;;;;;;;15.81;73.63;155423.81;5031746;28;20458;-79
2021/09/28 10:31:30;;;;;;;6.57;5.27;;;;;;;15.84;72.72;155430.31;5031841;28;20451;-79
2021/09/28 10:34:05;;;;;;;6.30;5.70;;;;;;;15.70;73.38;155395.22;5023768;28;20487;-79
2021/09/28 10:36:50;;;;;;;7.10;4.83;;;;;;;15.64;74.25;155379.66;5031585;28;20914;-79
2021/09/28 10:39:39;;;;;;;14.70;5.30;;;;;;;15.63;73.29;155377.03;5042098;28;20454;-79
2021/09/28 10:42:47;;;;;;;7.13;5.27;;;;;;;15.74;74.01;155405.66;5019594;28;20812;-79
2021/09/28 10:45:46;;;;;;;6.43;5.23;;;;;;;15.80;71.69;155419.94;5021603;28;20439;-79
2021/09/28 10:48:35;;;;;;;5.60;4.60;;;;;;;15.73;71.22;155403.03;5020695;28;20447;-79
2021/09/28 10:51:13;;;;;;;5.10;4.70;;;;;;;15.68;71.09;155390.03;5012000;28;20447;-79
2021/09/28 10:53:53;;;;;;;5.40;4.13;;;;;;;15.68;71.58;155388.72;5040479;28;20448;-80
2021/09/28 10:56:31;;;;;;;5.23;4.63;;;;;;;15.75;70.53;155408.22;5019658;28;20439;-79
2021/09/28 10:59:06;;;;;;;4.80;3.73;;;;;;;15.71;69.58;155397.84;5029954;28;20707;-80
2021/09/28 11:02:09;;;;;;;4.80;3.67;;;;;;;15.79;69.43;155418.63;5030737;28;20509;-79
2021/09/28 11:04:45;;;;;;;5.13;3.83;;;;;;;15.81;68.31;155423.81;5032198;28;20544;-79
2021/09/28 11:07:21;;;;;;;5.47;4.07;;;;;;;15.98;69.90;155465.44;5029037;28;20929;-80
2021/09/28 11:09:56;;;;;;;4.17;3.70;;;;;;;16.09;69.78;155495.38;5027502;28;20490;-79
2021/09/28 11:12:32;;;;;;;4.57;4.10;;;;;;;16.09;68.11;155494.06;5031603;28;20452;-79
2021/09/28 11:15:08;;;;;;;5.10;4.07;;;;;;;16.15;68.23;155509.66;5029074;28;20453;-80
2021/09/28 11:17:43;;;;;;;6.50;5.23;;;;;;;16.14;68.00;155507.06;5030004;28;20446;-79
2021/09/28 11:20:22;;;;;;;3.80;3.40;;;;;;;16.04;68.33;155481.06;5030600;28;20449;-80
2021/09/28 11:23:00;;;;;;;4.63;4.23;;;;;;;16.12;67.05;155503.16;5029552;28;20453;-79
2021/09/28 11:25:36;;;;;;;6.57;3.60;;;;;;;16.14;67.71;155507.06;5029512;28;20435;-79
2021/09/28 11:28:13;;;;;;;9.33;5.60;;;;;;;16.09;67.57;155494.06;5038720;28;20928;-79
2021/09/28 11:30:53;;;;;;;4.37;3.93;;;;;;;16.07;67.16;155488.88;5031004;28;20439;-79
2021/09/28 11:33:29;;;;;;;6.50;4.20;;;;;;;16.06;68.89;155486.25;5031349;28;20547;-80
2021/09/28 11:36:09;;;;;;;4.10;3.70;;;;;;;16.13;65.97;155505.75;5031047;28;20466;-79
2021/09/28 11:38:47;;;;;;;4.70;3.87;;;;;;;16.11;66.67;155499.25;5029642;28;20461;-80
2021/09/28 11:41:23;;;;;;;4.57;3.40;;;;;;;16.07;67.01;155490.13;5030847;28;20466;-78
2021/09/28 11:44:00;;;;;;;6.40;4.17;;;;;;;16.16;66.19;155512.25;5030646;28;20802;-79
2021/09/28 11:46:36;;;;;;;4.50;3.97;;;;;;;16.24;66.49;155533.06;5030313;28;20608;-79
2021/09/28 11:49:12;;;;;;;8.53;3.90;;;;;;;16.03;65.41;155478.44;5032525;28;20454;-79
2021/09/28 11:51:50;;;;;;;4.43;4.03;;;;;;;15.99;66.34;155468.06;5031132;28;20445;-79
2021/09/28 11:54:26;;;;;;;5.60;3.90;;;;;;;16.11;65.78;155500.56;5026333;28;20466;-79
2021/09/28 11:57:02;;;;;;;5.43;4.87;;;;;;;16.24;65.93;155533.06;5030824;28;20480;-79
2021/09/28 11:59:37;;;;;;;7.67;4.27;;;;;;;16.14;65.10;155508.38;5015100;28;20458;-79
2021/09/28 12:02:17;;;;;;;6.93;4.37;;;;;;;16.26;67.02;155538.25;5029615;28;20478;-79
2021/09/28 12:08:04;;;;;;;4.70;4.30;;;;;;;16.34;64.84;155560.34;5014454;28;20851;-79
2021/09/28 12:10:41;;;;;;;4.40;4.00;;;;;;;16.19;64.93;155521.38;5041354;28;20779;-79
2021/09/28 12:13:22;;;;;;;4.93;4.40;;;;;;;16.24;66.03;155533.06;5014918;28;20455;-79
2021/09/28 12:16:08;;;;;;;5.10;4.40;;;;;;;16.17;64.42;155516.16;5029384;28;20514;-79